Time;durP1;ratioP1;P1;durP2;ratioP2;P2;SDS_P1;SDS_P2;PMS_P1;PMS_P2;Temp;Humidity;BMP_temperature;BMP_pressure;BME280_temperature;BME280_humidity;BME280_pressure;Samples;Min_cycle;Max_cycle;Signal;HPM_P1;HPM_P2
2021/04/30 00:00:17;;;;;;;5.10;2.63;;;;;;;17.99;54.69;99023.19;2062187;28;20026;-67
2021/04/30 00:01:18;;;;;;;4.00;2.40;;;;;;;17.98;54.72;99024.22;2061248;28;20086;-68
2021/04/30 00:02:18;;;;;;;6.53;2.20;;;;;;;17.99;54.85;99027.78;2059977;28;20053;-67
2021/04/30 00:03:19;;;;;;;3.17;1.87;;;;;;;17.98;54.74;99026.94;2058674;28;20026;-67
2021/04/30 00:04:20;;;;;;;3.90;2.13;;;;;;;17.99;54.68;99031.38;2057658;28;20344;-67
2021/04/30 00:05:20;;;;;;;6.10;2.57;;;;;;;17.99;54.70;99022.34;2058830;28;20353;-67
2021/04/30 00:06:21;;;;;;;5.33;2.50;;;;;;;17.98;54.75;99026.06;2061489;28;20030;-68
2021/04/30 00:07:21;;;;;;;4.93;2.67;;;;;;;17.99;54.67;99031.38;2062135;28;20029;-67
2021/04/30 00:08:22;;;;;;;3.33;1.97;;;;;;;17.97;54.58;99036.13;2062256;28;20037;-67
2021/04/30 00:09:22;;;;;;;2.87;1.87;;;;;;;17.97;54.63;99029.84;2058232;28;20026;-67
2021/04/30 00:10:27;;;;;;;3.03;2.03;;;;;;;17.98;54.75;99037.84;2059001;28;20026;-67
2021/04/30 00:11:27;;;;;;;6.53;2.83;;;;;;;17.96;54.59;99045.34;2059044;28;20057;-67
2021/04/30 00:12:28;;;;;;;4.10;2.13;;;;;;;17.97;54.59;99029.84;2054442;28;20034;-67
2021/04/30 00:13:28;;;;;;;4.83;2.30;;;;;;;17.97;54.63;99038.84;2058262;28;20022;-68
2021/04/30 00:14:29;;;;;;;3.83;2.37;;;;;;;17.95;54.86;99035.44;2062211;28;20026;-67
2021/04/30 00:15:29;;;;;;;5.93;2.40;;;;;;;17.96;54.89;99034.44;2061469;28;20026;-68
2021/04/30 00:16:30;;;;;;;6.30;2.60;;;;;;;17.96;54.70;99037.16;2056742;28;20027;-67
2021/04/30 00:17:30;;;;;;;5.33;2.23;;;;;;;17.98;54.77;99037.84;2060681;28;20117;-68
2021/04/30 00:18:31;;;;;;;6.10;2.60;;;;;;;17.97;54.70;99041.59;2061144;28;20041;-67
2021/04/30 00:19:31;;;;;;;5.03;2.30;;;;;;;17.96;54.70;99037.16;2058653;28;20023;-67
2021/04/30 00:20:33;;;;;;;5.37;2.30;;;;;;;17.98;54.71;99037.84;2059907;28;20025;-68
2021/04/30 00:21:36;;;;;;;3.88;2.60;;;;;;;17.96;54.81;99031.72;2061997;28;20070;-67
2021/04/30 00:22:37;;;;;;;6.60;2.60;;;;;;;17.97;54.67;99033.41;2063384;28;20038;-67
2021/04/30 00:23:37;;;;;;;5.10;2.43;;;;;;;17.94;54.73;99036.47;2063616;28;20582;-68
2021/04/30 00:24:39;;;;;;;3.17;2.27;;;;;;;17.97;54.74;99036.13;2063190;28;20049;-68
2021/04/30 00:25:40;;;;;;;5.75;2.35;;;;;;;17.98;54.72;99032.41;2063231;28;20489;-68
2021/04/30 00:26:41;;;;;;;3.90;2.37;;;;;;;17.96;54.79;99033.59;2063411;28;20362;-67
2021/04/30 00:27:41;;;;;;;2.90;2.10;;;;;;;17.95;54.84;99038.16;2062624;28;20154;-67
2021/04/30 00:28:41;;;;;;;6.03;2.37;;;;;;;17.95;54.85;99038.16;2058475;28;20026;-67
2021/04/30 00:29:42;;;;;;;4.03;2.40;;;;;;;17.96;54.73;99042.63;2063050;28;20014;-67
2021/04/30 00:30:43;;;;;;;4.17;2.10;;;;;;;17.95;54.71;99043.63;2063383;28;20019;-67
2021/04/30 00:31:43;;;;;;;4.63;2.60;;;;;;;17.95;55.01;99045.50;2062965;28;20027;-68
2021/04/30 00:32:44;;;;;;;2.57;1.97;;;;;;;17.95;54.83;99040.03;2063455;28;20034;-67
2021/04/30 00:33:44;;;;;;;4.43;2.37;;;;;;;17.93;54.95;99037.50;2059414;28;20063;-67
2021/04/30 00:34:45;;;;;;;5.27;2.17;;;;;;;17.94;54.76;99039.19;2061341;28;20030;-67
2021/04/30 00:35:46;;;;;;;3.33;2.27;;;;;;;17.95;54.80;99038.16;2058615;28;20559;-67
2021/04/30 00:36:46;;;;;;;6.03;2.73;;;;;;;17.95;54.68;99031.88;2061692;28;20285;-68
2021/04/30 00:37:47;;;;;;;5.27;2.50;;;;;;;17.95;54.86;99042.78;2063073;28;20702;-67
2021/04/30 00:38:47;;;;;;;4.50;2.27;;;;;;;17.96;54.86;99039.03;2063695;28;20457;-68
2021/04/30 00:39:48;;;;;;;3.67;2.40;;;;;;;17.94;54.69;99031.03;2062726;28;20085;-67
2021/04/30 00:40:49;;;;;;;5.03;2.17;;;;;;;17.95;54.76;99038.16;2062938;28;20014;-67
2021/04/30 00:41:50;;;;;;;3.50;2.05;;;;;;;17.96;54.74;99033.59;2062920;28;20046;-67
2021/04/30 00:42:54;;;;;;;5.27;2.70;;;;;;;17.95;54.77;99037.31;2063511;28;20034;-68
2021/04/30 00:43:54;;;;;;;4.25;2.50;;;;;;;17.95;54.80;99031.88;2063852;28;20030;-67
2021/04/30 00:44:55;;;;;;;4.00;2.30;;;;;;;17.93;54.91;99026.59;2062099;28;20485;-67
2021/04/30 00:45:56;;;;;;;2.20;1.87;;;;;;;17.93;54.88;99026.59;2063762;28;20486;-68
2021/04/30 00:46:56;;;;;;;6.50;2.87;;;;;;;17.93;54.83;99029.34;2063176;28;20499;-67
2021/04/30 00:47:57;;;;;;;2.90;1.77;;;;;;;17.93;54.91;99023.88;2063440;28;20061;-66
2021/04/30 00:48:59;;;;;;;4.30;2.22;;;;;;;17.94;54.77;99022.00;2063070;28;20029;-67
2021/04/30 00:50:07;;;;;;;4.72;2.17;;;;;;;17.92;54.76;99022.16;2062289;28;20079;-67
2021/04/30 00:51:08;;;;;;;5.60;2.40;;;;;;;17.94;54.85;99019.28;2062098;28;20441;-67
2021/04/30 00:52:08;;;;;;;3.60;2.60;;;;;;;17.94;54.86;99020.13;2063119;28;20102;-67
2021/04/30 00:53:09;;;;;;;5.13;2.13;;;;;;;17.93;54.91;99023.00;2063863;28;20050;-68
2021/04/30 00:54:09;;;;;;;3.50;2.40;;;;;;;17.94;54.86;99019.28;2060021;28;20027;-67
2021/04/30 00:55:12;;;;;;;5.00;1.90;;;;;;;17.94;54.92;99031.03;2063447;28;20053;-68
2021/04/30 00:56:13;;;;;;;2.97;1.90;;;;;;;17.95;54.86;99030.00;2063363;28;20704;-67
2021/04/30 00:57:14;;;;;;;4.47;2.10;;;;;;;17.93;54.76;99029.34;2061574;28;20402;-67
2021/04/30 00:58:15;;;;;;;3.50;2.07;;;;;;;17.93;54.79;99021.16;2063000;28;20173;-67
2021/04/30 00:59:16;;;;;;;4.65;2.10;;;;;;;17.93;54.87;99029.34;2058041;28;20581;-67
2021/04/30 01:00:17;;;;;;;2.92;2.00;;;;;;;17.94;54.97;99033.75;2057734;28;20027;-67
2021/04/30 01:01:17;;;;;;;5.63;2.75;;;;;;;17.94;54.99;99025.56;2061294;28;20129;-67
2021/04/30 01:02:18;;;;;;;3.97;2.20;;;;;;;17.95;54.88;99035.44;2062102;28;20030;-67
2021/04/30 01:03:18;;;;;;;5.47;2.83;;;;;;;17.93;54.82;99036.63;2063120;28;20058;-67
2021/04/30 01:04:19;;;;;;;4.03;2.33;;;;;;;17.92;54.94;99041.22;2062082;28;20473;-68
2021/04/30 01:05:21;;;;;;;4.50;2.50;;;;;;;17.94;54.97;99039.19;2063582;28;20026;-67
2021/04/30 01:06:21;;;;;;;;;;;;;;;17.90;55.12;99042.44;2060949;28;20032;-67
2021/04/30 01:07:22;;;;;;;3.80;2.00;;;;;;;17.90;55.06;99042.44;2062984;28;19918;-68
2021/04/30 01:08:22;;;;;;;5.63;2.27;;;;;;;17.91;55.04;99038.69;2063626;28;20026;-68
2021/04/30 01:09:23;;;;;;;4.30;1.97;;;;;;;17.91;54.89;99042.28;2061125;28;20027;-68
2021/04/30 01:10:24;;;;;;;4.10;2.33;;;;;;;17.92;55.04;99046.69;2062782;28;20121;-67
2021/04/30 01:11:24;;;;;;;6.03;2.20;;;;;;;17.92;55.01;99048.56;2061285;28;20085;-67
2021/04/30 01:12:25;;;;;;;5.30;2.20;;;;;;;17.92;54.95;99043.13;2062527;28;20038;-67
2021/04/30 01:13:25;;;;;;;5.53;2.23;;;;;;;17.93;54.88;99056.59;2063528;28;20042;-67
2021/04/30 01:14:26;;;;;;;4.43;1.63;;;;;;;17.94;54.87;99052.00;2063060;28;20154;-67
2021/04/30 01:15:27;;;;;;;4.50;2.23;;;;;;;17.93;54.95;99051.13;2062997;28;20112;-67
2021/04/30 01:16:27;;;;;;;5.00;2.33;;;;;;;17.94;54.78;99044.66;2061797;28;20026;-67
2021/04/30 01:17:28;;;;;;;6.20;2.20;;;;;;;17.92;55.01;99043.97;2063407;28;20110;-67
2021/04/30 01:18:43;;;;;;;4.13;2.23;;;;;;;17.92;54.80;99049.41;2063056;28;20069;-67
2021/04/30 01:19:43;;;;;;;3.95;2.55;;;;;;;17.93;54.86;99050.25;2059526;28;20020;-67
2021/04/30 01:20:44;;;;;;;3.47;2.17;;;;;;;17.92;55.00;99046.69;2063160;28;20034;-67
2021/04/30 01:21:44;;;;;;;4.67;2.03;;;;;;;17.92;54.99;99043.97;2061441;28;20028;-68
2021/04/30 01:22:54;;;;;;;6.03;3.00;;;;;;;17.92;55.07;99049.41;2061726;28;20160;-67
2021/04/30 01:23:54;;;;;;;4.55;2.08;;;;;;;17.92;55.04;99046.69;2063193;28;20022;-67
2021/04/30 01:24:55;;;;;;;3.20;1.77;;;;;;;17.92;54.82;99043.97;2061863;28;20037;-67
2021/04/30 01:25:55;;;;;;;4.30;2.50;;;;;;;17.91;54.97;99050.44;2063096;28;20039;-67
2021/04/30 01:26:56;;;;;;;4.13;2.07;;;;;;;17.92;55.06;99045.84;2062792;28;20030;-67
2021/04/30 01:27:56;;;;;;;4.23;2.00;;;;;;;17.90;54.96;99046.00;2062285;28;20460;-67
2021/04/30 01:28:57;;;;;;;5.60;2.77;;;;;;;17.91;54.97;99045.00;2063041;28;20096;-67
2021/04/30 01:29:58;;;;;;;4.50;2.20;;;;;;;17.91;55.07;99047.72;2060349;28;20080;-67
2021/04/30 01:30:59;;;;;;;3.63;2.08;;;;;;;17.93;55.12;99051.13;2061735;28;20014;-67
2021/04/30 01:31:59;;;;;;;3.23;1.80;;;;;;;17.90;54.98;99040.53;2061426;28;20034;-67
2021/04/30 01:33:00;;;;;;;3.77;2.00;;;;;;;17.92;54.93;99040.38;2061902;28;20244;-67
2021/04/30 01:34:00;;;;;;;2.87;1.90;;;;;;;17.92;55.11;99043.13;2059738;28;20060;-67
2021/04/30 01:35:02;;;;;;;4.43;2.42;;;;;;;17.91;55.00;99041.44;2062219;28;20265;-67
2021/04/30 01:36:03;;;;;;;4.28;2.00;;;;;;;17.92;55.12;99032.22;2058417;28;20090;-67
2021/04/30 01:37:05;;;;;;;2.53;1.92;;;;;;;17.91;55.00;99038.69;2060489;28;20109;-67
2021/04/30 01:38:05;;;;;;;2.80;1.70;;;;;;;17.91;54.88;99031.38;2059430;28;20525;-67
2021/04/30 01:39:09;;;;;;;2.90;2.10;;;;;;;17.89;55.06;99041.59;2062450;28;20492;-67
2021/04/30 01:40:14;;;;;;;3.50;2.20;;;;;;;17.91;55.10;99042.28;2061791;28;20053;-67
2021/04/30 01:41:19;;;;;;;4.38;2.28;;;;;;;17.91;55.00;99046.88;2062290;28;20030;-68
2021/04/30 01:42:19;;;;;;;2.33;2.00;;;;;;;17.91;55.03;99039.53;2061074;28;20022;-68
2021/04/30 01:43:21;;;;;;;3.53;2.10;;;;;;;17.91;55.02;99036.81;2061283;28;20114;-67
2021/04/30 01:44:21;;;;;;;3.10;1.75;;;;;;;17.90;54.96;99040.53;2062650;28;20740;-67
2021/04/30 01:45:22;;;;;;;6.30;2.70;;;;;;;17.89;54.96;99038.84;2059288;28;20371;-68
2021/04/30 01:46:22;;;;;;;3.50;2.07;;;;;;;17.90;55.02;99040.53;2063556;28;20037;-67
2021/04/30 01:47:23;;;;;;;2.33;1.90;;;;;;;17.91;54.98;99042.28;2062570;28;20037;-67
2021/04/30 01:48:24;;;;;;;4.23;2.47;;;;;;;17.91;55.14;99041.44;2062664;28;20382;-67
2021/04/30 01:49:25;;;;;;;5.25;1.90;;;;;;;17.90;54.94;99043.28;2063370;28;20033;-67
2021/04/30 01:50:26;;;;;;;3.22;2.15;;;;;;;17.90;55.05;99035.09;2062607;28;20037;-67
2021/04/30 01:51:27;;;;;;;3.47;2.17;;;;;;;17.89;54.82;99038.84;2062372;28;20031;-67
2021/04/30 01:52:27;;;;;;;3.53;2.00;;;;;;;17.90;55.06;99043.28;2053831;28;20037;-67
2021/04/30 01:53:30;;;;;;;5.20;1.93;;;;;;;17.90;55.00;99035.09;2061778;28;20109;-67
2021/04/30 01:54:31;;;;;;;3.85;2.03;;;;;;;17.90;55.13;99035.09;2063195;28;20026;-67
2021/04/30 01:55:31;;;;;;;2.97;1.90;;;;;;;17.91;55.07;99034.09;2062462;28;20018;-67
2021/04/30 01:56:33;;;;;;;2.97;2.07;;;;;;;17.90;55.04;99035.09;2063341;28;20054;-67
2021/04/30 01:57:37;;;;;;;6.05;2.80;;;;;;;17.91;54.93;99042.28;2061907;28;20037;-67
2021/04/30 01:58:38;;;;;;;3.67;2.42;;;;;;;17.91;55.06;99046.88;2062239;28;20038;-67
2021/04/30 01:59:38;;;;;;;5.70;2.50;;;;;;;17.90;55.23;99040.53;2062052;28;20409;-67
2021/04/30 02:00:39;;;;;;;5.57;2.30;;;;;;;17.90;54.94;99046.00;2061006;28;20126;-67
2021/04/30 02:01:39;;;;;;;3.63;1.70;;;;;;;17.89;55.16;99048.91;2063160;28;20022;-67
2021/04/30 02:02:44;;;;;;;3.73;2.20;;;;;;;17.88;54.99;99037.13;2061550;28;20049;-67
2021/04/30 02:03:45;;;;;;;3.25;2.20;;;;;;;17.89;55.16;99038.84;2062430;28;20397;-67
2021/04/30 02:04:45;;;;;;;3.33;1.90;;;;;;;17.89;55.08;99044.31;2062873;28;20030;-67
2021/04/30 02:05:46;;;;;;;3.90;2.13;;;;;;;17.90;55.06;99051.44;2062552;28;20036;-67
2021/04/30 02:06:47;;;;;;;5.13;2.10;;;;;;;17.90;55.11;99046.00;2059809;28;20018;-68
2021/04/30 02:07:48;;;;;;;3.15;2.00;;;;;;;17.90;55.07;99034.25;2061370;28;20030;-67
2021/04/30 02:08:48;;;;;;;3.57;1.90;;;;;;;17.90;55.16;99045.16;2062816;28;20045;-67
2021/04/30 02:09:49;;;;;;;4.03;2.70;;;;;;;17.88;55.21;99042.59;2062878;28;20066;-67
2021/04/30 02:10:49;;;;;;;7.17;2.10;;;;;;;17.87;55.12;99040.88;2061704;28;20068;-66
2021/04/30 02:11:50;;;;;;;3.47;1.53;;;;;;;17.89;55.14;99043.47;2062229;28;20614;-67
2021/04/30 02:12:52;;;;;;;3.13;1.90;;;;;;;17.88;55.06;99041.72;2053817;28;20030;-67
2021/04/30 02:13:52;;;;;;;4.10;2.28;;;;;;;17.88;55.23;99048.03;2054149;28;20497;-67
2021/04/30 02:14:53;;;;;;;4.23;1.83;;;;;;;17.88;55.04;99048.03;2061902;28;20493;-67
2021/04/30 02:15:54;;;;;;;3.07;1.90;;;;;;;17.87;55.15;99051.78;2062290;28;20485;-67
2021/04/30 02:16:55;;;;;;;3.08;2.05;;;;;;;17.88;55.14;99047.19;2063124;28;20500;-67
2021/04/30 02:17:56;;;;;;;2.90;1.80;;;;;;;17.89;55.09;99048.91;2062430;28;20397;-67
2021/04/30 02:18:56;;;;;;;3.60;1.93;;;;;;;17.87;55.24;99046.34;2062684;28;20034;-67
2021/04/30 02:19:57;;;;;;;3.53;1.80;;;;;;;17.88;55.07;99053.50;2062127;28;20033;-67
2021/04/30 02:20:57;;;;;;;2.73;2.00;;;;;;;17.88;55.18;99050.75;2062053;28;20033;-67
2021/04/30 02:21:58;;;;;;;4.40;2.10;;;;;;;17.88;55.25;99053.50;2057394;28;20025;-67
2021/04/30 02:22:59;;;;;;;3.50;1.90;;;;;;;17.88;55.07;99053.50;2059853;28;20101;-67
2021/04/30 02:24:00;;;;;;;2.43;1.70;;;;;;;17.90;54.87;99050.59;2055203;28;20385;-68
2021/04/30 02:25:00;;;;;;;4.22;1.85;;;;;;;17.89;55.11;99051.63;2056872;28;20144;-67
2021/04/30 02:26:01;;;;;;;3.43;1.80;;;;;;;17.88;54.99;99050.75;2057091;28;20031;-67
2021/04/30 02:27:01;;;;;;;4.37;1.83;;;;;;;17.88;55.15;99048.03;2062440;28;20914;-67
2021/04/30 02:28:18;;;;;;;2.93;1.93;;;;;;;17.88;55.15;99044.47;2060018;28;20058;-67
2021/04/30 02:29:18;;;;;;;2.90;1.83;;;;;;;17.87;55.26;99046.34;2055951;28;20034;-67
2021/04/30 02:30:21;;;;;;;3.90;1.93;;;;;;;17.87;55.05;99043.63;2062848;28;20020;-67
2021/04/30 02:31:21;;;;;;;3.15;1.80;;;;;;;17.88;55.05;99047.19;2062786;28;20363;-67
2021/04/30 02:32:23;;;;;;;2.33;1.80;;;;;;;17.88;55.10;99048.03;2062742;28;20105;-67
2021/04/30 02:33:23;;;;;;;2.13;1.73;;;;;;;17.87;55.06;99051.78;2059080;28;20027;-67
2021/04/30 02:34:24;;;;;;;2.30;1.67;;;;;;;17.88;55.31;99048.03;2063014;28;20034;-67
2021/04/30 02:35:30;;;;;;;4.80;1.97;;;;;;;17.90;54.93;99056.06;2062784;28;20022;-67
2021/04/30 02:36:31;;;;;;;2.28;1.88;;;;;;;17.88;55.06;99056.22;2060236;28;20630;-67
2021/04/30 02:37:31;;;;;;;3.00;1.83;;;;;;;17.88;55.15;99053.50;2059582;28;20096;-67
2021/04/30 02:38:33;;;;;;;3.03;1.83;;;;;;;17.87;55.29;99049.06;2060947;28;20049;-67
2021/04/30 02:39:34;;;;;;;;;;;;;;;17.82;55.20;99051.44;2060573;28;20037;-67
2021/04/30 02:40:36;;;;;;;2.65;1.52;;;;;;;17.83;55.13;99044.97;2061782;28;20412;-67
2021/04/30 02:41:36;;;;;;;2.35;1.55;;;;;;;17.84;55.43;99049.41;2062879;28;20022;-67
2021/04/30 02:42:37;;;;;;;2.53;1.50;;;;;;;17.85;55.32;99042.94;2061497;28;20125;-67
2021/04/30 02:43:38;;;;;;;3.17;2.20;;;;;;;17.84;55.25;99046.69;2062462;28;20045;-67
2021/04/30 02:44:38;;;;;;;2.97;1.70;;;;;;;17.86;55.24;99049.22;2060473;28;20029;-67
2021/04/30 02:45:40;;;;;;;6.03;3.23;;;;;;;17.86;55.24;99049.22;2062681;28;20033;-67
2021/04/30 02:46:40;;;;;;;2.35;1.80;;;;;;;17.86;55.36;99050.09;2062112;28;20426;-67
2021/04/30 02:47:45;;;;;;;4.30;2.10;;;;;;;17.86;55.21;99035.59;2061515;28;20030;-67
2021/04/30 02:48:48;;;;;;;3.53;2.50;;;;;;;17.86;55.12;99043.78;2062164;28;20652;-67
2021/04/30 02:49:49;;;;;;;2.88;1.88;;;;;;;17.86;55.14;99039.19;2062461;28;20026;-67
2021/04/30 02:50:50;;;;;;;3.28;2.20;;;;;;;17.86;55.17;99044.66;2062557;28;20018;-67
2021/04/30 02:51:50;;;;;;;3.63;2.60;;;;;;;17.86;55.14;99041.94;2061890;28;20045;-67
2021/04/30 02:52:51;;;;;;;2.83;1.57;;;;;;;17.86;55.17;99044.66;2062038;28;20041;-67
2021/04/30 02:53:51;;;;;;;3.57;2.00;;;;;;;17.88;55.24;99044.47;2062900;28;20100;-67
2021/04/30 02:54:52;;;;;;;5.27;1.80;;;;;;;17.86;55.06;99050.09;2057708;28;20278;-67
2021/04/30 02:55:53;;;;;;;3.00;1.77;;;;;;;17.87;55.06;99045.50;2062084;28;20023;-67
2021/04/30 02:56:53;;;;;;;3.27;1.70;;;;;;;17.86;55.25;99041.94;2062175;28;20129;-67
2021/04/30 02:58:00;;;;;;;3.00;1.87;;;;;;;17.86;55.13;99044.66;2061698;28;20360;-68
2021/04/30 02:59:04;;;;;;;2.53;1.80;;;;;;;17.88;55.26;99048.03;2062472;28;20413;-67
2021/04/30 03:00:07;;;;;;;2.60;1.80;;;;;;;17.86;55.33;99044.66;2062501;28;20026;-67
2021/04/30 03:01:09;;;;;;;2.67;2.22;;;;;;;17.86;55.14;99044.66;2061639;28;20010;-67
2021/04/30 03:02:10;;;;;;;4.25;1.88;;;;;;;17.86;55.07;99047.38;2062632;28;20026;-67
2021/04/30 03:03:10;;;;;;;2.37;1.60;;;;;;;17.87;55.09;99046.34;2062037;28;20126;-67
2021/04/30 03:04:11;;;;;;;3.03;2.07;;;;;;;17.85;55.21;99037.47;2062597;28;20034;-67
2021/04/30 03:05:12;;;;;;;3.23;1.90;;;;;;;17.86;55.22;99050.09;2058073;28;20101;-67
2021/04/30 03:06:13;;;;;;;3.17;1.80;;;;;;;17.85;55.04;99042.94;2058526;28;20042;-67
2021/04/30 03:07:13;;;;;;;4.90;2.20;;;;;;;17.86;55.31;99036.47;2058526;28;20029;-67
2021/04/30 03:08:13;;;;;;;4.97;1.90;;;;;;;17.86;55.24;99033.75;2061334;28;20034;-67
2021/04/30 03:09:14;;;;;;;4.30;2.17;;;;;;;17.87;55.04;99045.50;2059908;28;20108;-67
2021/04/30 03:10:16;;;;;;;2.50;1.60;;;;;;;17.85;55.08;99032.03;2062072;28;20060;-67
2021/04/30 03:11:17;;;;;;;3.70;1.90;;;;;;;17.85;55.14;99037.47;2058858;28;20033;-67
2021/04/30 03:12:17;;;;;;;3.67;1.90;;;;;;;17.87;55.16;99034.59;2057537;28;20682;-67
2021/04/30 03:13:18;;;;;;;3.07;2.10;;;;;;;17.86;55.18;99036.47;2060278;28;20025;-67
2021/04/30 03:14:18;;;;;;;3.53;1.83;;;;;;;17.85;55.11;99032.03;2060656;28;20062;-67
2021/04/30 03:15:20;;;;;;;3.23;1.60;;;;;;;17.85;55.10;99037.47;2061301;28;20053;-68
2021/04/30 03:16:20;;;;;;;4.22;1.85;;;;;;;17.86;54.98;99036.47;2062369;28;20085;-67
2021/04/30 03:17:20;;;;;;;4.00;1.67;;;;;;;17.86;55.19;99035.59;2062856;28;20031;-67
2021/04/30 03:18:21;;;;;;;2.67;1.83;;;;;;;17.84;55.05;99032.22;2062092;28;20034;-67
2021/04/30 03:19:21;;;;;;;2.30;1.63;;;;;;;17.84;55.26;99041.22;2061536;28;20444;-68
2021/04/30 03:20:22;;;;;;;3.30;1.90;;;;;;;17.84;55.25;99038.50;2056071;28;20019;-67
2021/04/30 03:21:22;;;;;;;3.20;1.60;;;;;;;17.85;55.15;99034.75;2056944;28;20109;-67
2021/04/30 03:22:23;;;;;;;4.23;2.20;;;;;;;17.86;55.34;99044.66;2062841;28;20030;-67
2021/04/30 03:23:23;;;;;;;2.63;1.63;;;;;;;17.85;55.20;99037.47;2061190;28;20446;-67
2021/04/30 03:24:24;;;;;;;3.40;1.87;;;;;;;17.85;55.27;99039.34;2061873;28;20041;-67
2021/04/30 03:25:24;;;;;;;2.57;1.70;;;;;;;17.84;55.05;99035.78;2061759;28;20030;-67
2021/04/30 03:26:25;;;;;;;3.03;1.70;;;;;;;17.83;55.22;99044.97;2061591;28;20027;-67
2021/04/30 03:27:27;;;;;;;3.60;1.60;;;;;;;17.84;55.20;99041.22;2062263;28;20085;-67
2021/04/30 03:28:28;;;;;;;3.90;2.00;;;;;;;17.85;55.09;99037.47;2061323;28;20033;-67
2021/04/30 03:29:29;;;;;;;2.97;1.58;;;;;;;17.83;55.29;99044.97;2062045;28;20036;-67
2021/04/30 03:30:29;;;;;;;3.23;2.27;;;;;;;17.85;55.32;99044.81;2062000;28;20076;-67
2021/04/30 03:31:30;;;;;;;2.57;1.60;;;;;;;17.84;55.02;99038.50;2060790;28;20093;-67
2021/04/30 03:32:31;;;;;;;4.38;1.80;;;;;;;17.84;55.30;99040.38;2062743;28;20070;-67
2021/04/30 03:33:31;;;;;;;2.87;2.30;;;;;;;17.84;55.17;99034.94;2061839;28;20821;-67
2021/04/30 03:34:32;;;;;;;4.83;1.70;;;;;;;17.83;55.34;99046.84;2062665;28;20397;-67
2021/04/30 03:35:32;;;;;;;2.70;1.97;;;;;;;17.84;55.34;99040.38;2061859;28;20390;-68
2021/04/30 03:36:33;;;;;;;2.63;1.80;;;;;;;17.84;55.28;99045.84;2062209;28;20037;-68
2021/04/30 03:37:34;;;;;;;3.00;1.90;;;;;;;17.84;55.11;99052.13;2059940;28;20026;-67
2021/04/30 03:38:35;;;;;;;2.87;1.50;;;;;;;17.83;55.26;99050.41;2061976;28;20050;-67
2021/04/30 03:39:35;;;;;;;2.77;1.70;;;;;;;17.83;55.17;99044.97;2062451;28;20343;-68
2021/04/30 03:40:36;;;;;;;3.83;1.50;;;;;;;17.84;55.22;99052.13;2056743;28;20707;-67
2021/04/30 03:41:36;;;;;;;2.67;2.17;;;;;;;17.83;55.27;99050.41;2058603;28;20044;-67
2021/04/30 03:42:37;;;;;;;6.83;2.40;;;;;;;17.83;55.19;99050.41;2054685;28;20114;-67
2021/04/30 03:43:37;;;;;;;2.13;1.60;;;;;;;17.84;55.25;99046.69;2060886;28;20046;-67
2021/04/30 03:44:38;;;;;;;2.80;1.57;;;;;;;17.84;55.26;99052.13;2062323;28;20106;-67
2021/04/30 03:45:38;;;;;;;2.22;2.00;;;;;;;17.83;55.02;99044.97;2062064;28;20398;-67
2021/04/30 03:46:39;;;;;;;2.80;2.13;;;;;;;17.83;55.12;99044.13;2061893;28;20065;-67
2021/04/30 03:47:39;;;;;;;3.23;1.60;;;;;;;17.84;55.41;99046.69;2062817;28;20018;-67
2021/04/30 03:48:40;;;;;;;2.37;1.60;;;;;;;17.83;55.30;99044.13;2061745;28;20124;-68
2021/04/30 03:49:41;;;;;;;3.88;2.10;;;;;;;17.82;55.34;99043.28;2062511;28;20060;-67
2021/04/30 03:50:41;;;;;;;4.23;2.20;;;;;;;17.83;55.19;99044.13;2062399;28;20026;-67
2021/04/30 03:51:41;;;;;;;2.30;1.60;;;;;;;17.81;55.20;99033.41;2062038;28;20664;-67
2021/04/30 03:52:42;;;;;;;3.47;2.07;;;;;;;17.82;55.25;99040.53;2062397;28;20110;-67
2021/04/30 03:53:42;;;;;;;2.27;1.67;;;;;;;17.82;55.38;99035.09;2062184;28;20030;-67
2021/04/30 03:54:43;;;;;;;3.10;2.03;;;;;;;17.81;55.20;99041.56;2056458;28;20595;-68
2021/04/30 03:55:44;;;;;;;3.40;1.80;;;;;;;17.82;55.29;99037.81;2057143;28;20068;-67
2021/04/30 03:56:44;;;;;;;1.50;1.40;;;;;;;17.84;55.17;99037.66;2053867;28;20070;-67
2021/04/30 03:57:45;;;;;;;2.20;1.63;;;;;;;17.83;55.16;99039.50;2061093;28;20026;-67
2021/04/30 03:58:45;;;;;;;3.17;1.60;;;;;;;17.83;55.34;99038.66;2063677;28;20053;-67
2021/04/30 03:59:45;;;;;;;4.10;1.60;;;;;;;17.83;55.27;99034.06;2063752;28;20037;-67
2021/04/30 04:00:46;;;;;;;3.10;1.97;;;;;;;17.83;55.39;99034.06;2063986;28;22693;-67
2021/04/30 04:01:47;;;;;;;2.10;1.50;;;;;;;17.83;55.21;99039.50;2063580;28;20084;-67
2021/04/30 04:02:47;;;;;;;3.70;2.00;;;;;;;17.84;55.19;99034.94;2063592;28;20030;-67
2021/04/30 04:03:48;;;;;;;3.43;1.90;;;;;;;17.84;55.19;99035.78;2064265;28;20472;-67
2021/04/30 04:04:48;;;;;;;2.93;1.67;;;;;;;17.84;55.05;99033.06;2061650;28;20138;-67
2021/04/30 04:05:49;;;;;;;1.87;1.60;;;;;;;17.83;55.15;99030.47;2063292;28;20098;-67
2021/04/30 04:06:49;;;;;;;1.85;1.33;;;;;;;17.83;55.11;99033.22;2063754;28;20034;-67
2021/04/30 04:07:50;;;;;;;2.90;1.50;;;;;;;17.83;55.19;99035.94;2060437;28;20049;-67
2021/04/30 04:08:50;;;;;;;2.37;1.80;;;;;;;17.82;55.29;99037.81;2064231;28;20105;-67
2021/04/30 04:09:50;;;;;;;2.30;1.90;;;;;;;17.82;55.17;99037.81;2062240;28;20768;-67
2021/04/30 04:10:53;;;;;;;2.03;1.67;;;;;;;17.83;55.27;99034.06;2064234;28;20158;-67
2021/04/30 04:11:53;;;;;;;4.63;1.95;;;;;;;17.84;55.17;99035.78;2061234;28;20034;-67
2021/04/30 04:12:53;;;;;;;2.53;1.73;;;;;;;17.84;55.13;99029.47;2062174;28;20058;-67
2021/04/30 04:13:54;;;;;;;3.00;2.10;;;;;;;17.82;55.43;99032.38;2063308;28;20034;-67
2021/04/30 04:14:54;;;;;;;2.67;1.83;;;;;;;17.83;55.25;99033.22;2062004;28;20027;-67
2021/04/30 04:15:59;;;;;;;4.30;1.63;;;;;;;17.82;55.14;99037.81;2063865;28;20481;-67
2021/04/30 04:16:59;;;;;;;2.53;1.30;;;;;;;17.82;55.23;99037.81;2063235;28;20046;-68
2021/04/30 04:18:00;;;;;;;2.83;2.20;;;;;;;17.82;55.00;99034.25;2063566;28;20078;-67
2021/04/30 04:19:00;;;;;;;2.43;1.80;;;;;;;17.80;55.29;99037.13;2063867;28;20544;-67
2021/04/30 04:20:02;;;;;;;2.43;1.80;;;;;;;17.82;55.04;99046.00;2062895;28;20030;-67
2021/04/30 04:21:03;;;;;;;3.75;1.65;;;;;;;17.82;55.27;99043.28;2063946;28;20468;-67
2021/04/30 04:22:03;;;;;;;3.40;1.60;;;;;;;17.82;55.42;99043.28;2062930;28;20038;-68
2021/04/30 04:23:04;;;;;;;2.20;1.63;;;;;;;17.83;55.35;99047.69;2063909;28;20117;-68
2021/04/30 04:24:05;;;;;;;4.20;2.33;;;;;;;17.81;55.11;99044.31;2063873;28;20034;-67
2021/04/30 04:25:06;;;;;;;2.53;1.93;;;;;;;17.82;55.29;99043.28;2062422;28;20485;-67
2021/04/30 04:26:07;;;;;;;4.93;2.28;;;;;;;17.82;55.29;99037.81;2064059;28;20026;-67
2021/04/30 04:27:08;;;;;;;3.13;1.70;;;;;;;17.81;55.33;99037.97;2062648;28;20030;-67
2021/04/30 04:28:09;;;;;;;3.20;1.67;;;;;;;17.80;55.42;99031.66;2063060;28;20022;-67
2021/04/30 04:29:09;;;;;;;1.83;1.60;;;;;;;17.81;55.25;99037.97;2063451;28;20113;-67
2021/04/30 04:30:12;;;;;;;3.23;1.37;;;;;;;17.81;55.36;99036.13;2060457;28;20049;-67
2021/04/30 04:31:13;;;;;;;2.00;1.30;;;;;;;17.81;55.27;99041.56;2063759;28;20401;-67
2021/04/30 04:32:13;;;;;;;3.87;1.50;;;;;;;17.81;55.15;99036.13;2059482;28;20048;-67
2021/04/30 04:33:14;;;;;;;2.00;1.33;;;;;;;17.81;55.15;99043.41;2062702;28;20066;-67
2021/04/30 04:34:14;;;;;;;2.93;1.80;;;;;;;17.81;55.40;99047.03;2062811;28;20499;-68
2021/04/30 04:35:15;;;;;;;2.43;1.60;;;;;;;17.81;55.19;99047.03;2062813;28;20076;-67
2021/04/30 04:36:15;;;;;;;2.73;1.83;;;;;;;17.81;55.32;99044.31;2063542;28;20038;-67
2021/04/30 04:37:16;;;;;;;4.93;1.43;;;;;;;17.81;55.30;99047.03;2063614;28;20470;-67
2021/04/30 04:38:16;;;;;;;2.67;1.70;;;;;;;17.81;55.25;99037.97;2060493;28;20031;-67
2021/04/30 04:39:17;;;;;;;2.27;1.70;;;;;;;17.81;55.39;99047.03;2063679;28;20026;-67
2021/04/30 04:40:17;;;;;;;4.17;2.07;;;;;;;17.81;55.30;99046.16;2063254;28;20030;-68
2021/04/30 04:41:18;;;;;;;3.17;1.93;;;;;;;17.81;55.34;99041.56;2062657;28;20049;-67
2021/04/30 04:42:18;;;;;;;4.70;1.77;;;;;;;17.80;55.34;99045.31;2062502;28;20030;-68
2021/04/30 04:43:19;;;;;;;3.20;2.10;;;;;;;17.80;55.37;99042.56;2062908;28;20068;-66
2021/04/30 04:44:19;;;;;;;4.17;2.13;;;;;;;17.82;55.26;99042.41;2062474;28;20034;-66
2021/04/30 04:45:20;;;;;;;3.67;1.70;;;;;;;17.82;55.24;99047.88;2053909;28;20410;-66
2021/04/30 04:46:21;;;;;;;1.73;1.20;;;;;;;17.81;55.41;99041.56;2062808;28;20037;-67
2021/04/30 04:47:21;;;;;;;2.30;1.60;;;;;;;17.80;55.36;99045.31;2063312;28;20057;-66